createdAt,value
2023-04-10T00:00:24.476Z,83.69
2023-04-10T00:01:24.285Z,84.00
2023-04-10T00:02:24.465Z,84.00
2023-04-10T00:03:24.532Z,83.80
2023-04-10T00:04:24.326Z,83.69
2023-04-10T00:05:24.393Z,83.80
2023-04-10T00:06:24.202Z,83.90
2023-04-10T00:07:24.277Z,84.00
2023-04-10T00:08:24.410Z,83.69
2023-04-10T00:09:24.184Z,83.48
2023-04-10T00:10:24.171Z,83.80
2023-04-10T00:11:24.151Z,84.11
2023-04-10T00:12:24.129Z,84.00
2023-04-10T00:13:24.116Z,84.21
2023-04-10T00:14:24.139Z,84.52
2023-04-10T00:15:24.106Z,84.73
2023-04-10T00:16:24.141Z,84.52
2023-04-10T00:17:24.171Z,83.90
2023-04-10T00:18:24.059Z,83.59
2023-04-10T00:19:24.036Z,83.73
2023-04-10T00:20:24.049Z,83.94
2023-04-10T00:21:24.033Z,84.05
2023-04-10T00:22:23.998Z,84.05
2023-04-10T00:23:23.988Z,84.25
2023-04-10T00:24:23.977Z,84.46
2023-04-10T00:25:24.003Z,84.67
2023-04-10T00:26:23.974Z,84.83
2023-04-10T00:27:23.931Z,84.73
2023-04-10T00:28:23.927Z,84.73
2023-04-10T00:29:23.909Z,84.73
2023-04-10T00:30:23.936Z,84.63
2023-04-10T00:31:23.928Z,84.52
2023-04-10T00:32:24.256Z,84.46
2023-04-10T00:33:23.870Z,84.36
2023-04-10T00:34:23.840Z,84.36
2023-04-10T00:35:23.826Z,83.94
2023-04-10T00:36:23.860Z,83.73
2023-04-10T00:37:23.795Z,84.05
2023-04-10T00:38:23.790Z,84.36
2023-04-10T00:39:23.778Z,84.56
2023-04-10T00:40:23.788Z,84.15
2023-04-10T00:41:23.769Z,84.19
2023-04-10T00:42:23.736Z,84.39
2023-04-10T00:43:23.730Z,84.70
2023-04-10T00:44:23.723Z,84.81
2023-04-10T00:45:23.700Z,84.70
2023-04-10T00:46:23.740Z,84.77
2023-04-10T00:47:23.680Z,84.56
2023-04-10T00:48:23.656Z,84.60
2023-04-10T00:49:23.639Z,84.70
2023-04-10T00:50:23.630Z,84.70
2023-04-10T00:51:23.634Z,84.60
2023-04-10T00:52:23.602Z,84.81
2023-04-10T00:53:23.609Z,85.02
2023-04-10T00:54:23.579Z,85.02
2023-04-10T00:55:23.557Z,84.91
2023-04-10T00:56:23.578Z,84.60
2023-04-10T00:57:23.535Z,84.60
2023-04-10T00:58:23.537Z,84.60
2023-04-10T00:59:23.504Z,84.50
2023-04-10T01:00:23.503Z,84.29
2023-04-10T01:01:23.577Z,84.19
2023-04-10T01:02:23.766Z,84.43
2023-04-10T01:03:23.767Z,84.43
2023-04-10T01:04:23.557Z,84.74
2023-04-10T01:05:23.427Z,85.05
2023-04-10T01:06:23.453Z,84.95
2023-04-10T01:07:23.391Z,85.05
2023-04-10T01:08:23.385Z,85.26
2023-04-10T01:09:23.379Z,85.47
2023-04-10T01:10:23.356Z,85.36
2023-04-10T01:11:23.367Z,85.26
2023-04-10T01:12:23.468Z,85.36
2023-04-10T01:13:23.315Z,85.47
2023-04-10T01:14:23.313Z,85.36
2023-04-10T01:15:23.293Z,85.33
2023-04-10T01:16:23.330Z,85.43
2023-04-10T01:17:23.288Z,85.12
2023-04-10T01:18:23.257Z,85.02
2023-04-10T01:19:23.235Z,85.33
2023-04-10T01:20:23.227Z,85.12
2023-04-10T01:21:23.232Z,85.02
2023-04-10T01:22:23.262Z,85.16
2023-04-10T01:23:23.188Z,85.33
2023-04-10T01:24:23.220Z,85.16
2023-04-10T01:25:23.156Z,85.05
2023-04-10T01:26:23.171Z,85.16
2023-04-10T01:27:23.135Z,85.05
2023-04-10T01:28:23.129Z,85.26
2023-04-10T01:29:23.128Z,85.57
2023-04-10T01:30:23.103Z,85.36
2023-04-10T01:31:23.126Z,85.26
2023-04-10T01:32:23.109Z,85.47
2023-04-10T01:33:23.059Z,85.68
2023-04-10T01:34:23.063Z,85.57
2023-04-10T01:35:23.084Z,85.57
2023-04-10T01:36:23.028Z,85.57
2023-04-10T01:37:23.012Z,85.57
2023-04-10T01:38:23.000Z,85.47
2023-04-10T01:39:22.971Z,85.47
2023-04-10T01:40:22.955Z,85.47
2023-04-10T01:41:22.949Z,85.36
2023-04-10T01:42:22.962Z,85.36
2023-04-10T01:43:22.932Z,85.16
2023-04-10T01:44:22.908Z,85.16
2023-04-10T01:45:22.890Z,85.16
2023-04-10T01:46:22.952Z,85.30
2023-04-10T01:47:22.900Z,85.20
2023-04-10T01:48:22.857Z,84.89
2023-04-10T01:49:22.896Z,84.89
2023-04-10T01:50:22.824Z,84.99
2023-04-10T01:51:22.820Z,85.20
2023-04-10T01:52:22.937Z,85.30
2023-04-10T01:53:22.794Z,85.20
2023-04-10T01:54:22.803Z,85.61
2023-04-10T01:55:22.771Z,85.72
2023-04-10T01:56:22.770Z,85.93
2023-04-10T01:57:22.762Z,85.93
2023-04-10T01:58:22.730Z,85.82
2023-04-10T01:59:22.720Z,85.82
2023-04-10T02:00:22.800Z,85.72
2023-04-10T02:01:29.705Z,85.51
2023-04-10T02:02:23.777Z,85.20
2023-04-10T02:03:23.058Z,85.30
2023-04-10T02:04:22.744Z,85.41
2023-04-10T02:05:22.635Z,85.30
2023-04-10T02:06:22.641Z,85.55
2023-04-10T02:07:22.628Z,85.86
2023-04-10T02:08:22.609Z,85.86
2023-04-10T02:09:22.582Z,85.96
2023-04-10T02:10:22.587Z,85.96
2023-04-10T02:11:22.562Z,86.07
2023-04-10T02:12:22.583Z,86.07
2023-04-10T02:13:22.537Z,86.07
2023-04-10T02:14:22.546Z,86.17
2023-04-10T02:15:22.501Z,86.13
2023-04-10T02:16:22.513Z,86.07
2023-04-10T02:17:22.531Z,86.03
2023-04-10T02:18:22.469Z,85.82
2023-04-10T02:19:22.460Z,85.61
2023-04-10T02:20:22.448Z,85.41
2023-04-10T02:21:22.442Z,85.55
2023-04-10T02:22:22.439Z,85.65
2023-04-10T02:23:22.402Z,85.72
2023-04-10T02:24:22.394Z,85.86
2023-04-10T02:25:22.370Z,85.75
2023-04-10T02:26:22.374Z,85.51
2023-04-10T02:27:22.426Z,85.61
2023-04-10T02:28:22.341Z,85.61
2023-04-10T02:29:22.329Z,85.61
2023-04-10T02:30:22.444Z,85.61
2023-04-10T02:31:22.338Z,85.61
2023-04-10T02:32:22.324Z,85.72
2023-04-10T02:33:22.287Z,85.72
2023-04-10T02:34:22.256Z,85.72
2023-04-10T02:35:22.244Z,85.61
2023-04-10T02:36:22.246Z,85.61
2023-04-10T02:37:22.196Z,85.61
2023-04-10T02:38:22.228Z,85.61
2023-04-10T02:39:22.179Z,85.72
2023-04-10T02:40:22.177Z,85.72
2023-04-10T02:41:22.149Z,85.72
2023-04-10T02:42:22.160Z,85.61
2023-04-10T02:43:22.157Z,85.82
2023-04-10T02:44:22.118Z,85.86
2023-04-10T02:45:22.103Z,85.86
2023-04-10T02:46:22.152Z,85.96
2023-04-10T02:47:22.090Z,86.17
2023-04-10T02:48:22.091Z,86.38
2023-04-10T02:49:22.062Z,86.38
2023-04-10T02:50:22.056Z,86.38
2023-04-10T02:51:22.024Z,86.38
2023-04-10T02:52:22.028Z,86.44
2023-04-10T02:53:22.017Z,86.55
2023-04-10T02:54:21.987Z,86.55
2023-04-10T02:55:21.978Z,86.55
2023-04-10T02:56:21.980Z,86.65
2023-04-10T02:57:21.943Z,86.44
2023-04-10T02:58:21.987Z,86.34
2023-04-10T02:59:21.944Z,86.24
2023-04-10T03:00:21.939Z,86.13
2023-04-10T03:01:21.919Z,86.07
2023-04-10T03:02:22.098Z,85.96
2023-04-10T03:03:22.004Z,86.07
2023-04-10T03:04:22.082Z,86.13
2023-04-10T03:05:21.856Z,86.34
2023-04-10T03:06:21.838Z,86.44
2023-04-10T03:07:21.816Z,86.24
2023-04-10T03:08:21.799Z,86.03
2023-04-10T03:09:21.788Z,85.93
2023-04-10T03:10:21.786Z,85.86
2023-04-10T03:11:21.756Z,85.96
2023-04-10T03:12:21.747Z,85.86
2023-04-10T03:13:21.760Z,86.07
2023-04-10T03:14:21.732Z,86.27
2023-04-10T03:15:21.733Z,86.27
2023-04-10T03:16:21.769Z,86.38
2023-04-10T03:17:21.674Z,86.69
2023-04-10T03:18:21.698Z,86.90
2023-04-10T03:19:21.653Z,86.90
2023-04-10T03:20:21.660Z,87.01
2023-04-10T03:21:21.626Z,87.01
2023-04-10T03:22:21.653Z,86.90
2023-04-10T03:23:21.616Z,86.90
2023-04-10T03:24:21.575Z,86.69
2023-04-10T03:25:21.603Z,86.27
2023-04-10T03:26:21.577Z,86.27
2023-04-10T03:27:21.838Z,86.49
2023-04-10T03:28:21.548Z,86.38
2023-04-10T03:29:21.511Z,86.32
2023-04-10T03:30:21.526Z,86.52
2023-04-10T03:31:21.511Z,86.73
2023-04-10T03:32:21.487Z,86.83
2023-04-10T03:33:21.478Z,86.83
2023-04-10T03:34:21.570Z,86.73
2023-04-10T03:35:21.508Z,86.83
2023-04-10T03:36:21.434Z,86.94
2023-04-10T03:37:21.413Z,86.94
2023-04-10T03:38:21.415Z,86.83
2023-04-10T03:39:21.400Z,86.63
2023-04-10T03:40:21.386Z,86.63
2023-04-10T03:41:22.629Z,86.63
2023-04-10T03:42:21.356Z,86.73
2023-04-10T03:43:21.339Z,86.63
2023-04-10T03:44:21.325Z,86.42
2023-04-10T03:45:21.323Z,86.32
2023-04-10T03:46:21.334Z,86.21
2023-04-10T03:47:21.312Z,86.21
2023-04-10T03:48:21.274Z,86.11
2023-04-10T03:49:21.256Z,86.15
2023-04-10T03:50:21.278Z,86.15
2023-04-10T03:51:21.242Z,85.94
2023-04-10T03:52:21.212Z,85.94
2023-04-10T03:53:21.220Z,86.04
2023-04-10T03:54:21.195Z,86.15
2023-04-10T03:55:21.243Z,86.35
2023-04-10T03:56:21.188Z,86.57
2023-04-10T03:57:21.170Z,86.67
2023-04-10T03:58:21.161Z,86.67
2023-04-10T03:59:24.286Z,86.46
2023-04-10T04:00:22.133Z,86.57
2023-04-10T04:01:21.092Z,86.67
2023-04-10T04:02:21.221Z,86.67
2023-04-10T04:03:21.260Z,86.67
2023-04-10T04:04:21.187Z,86.57
2023-04-10T04:05:21.057Z,86.46
2023-04-10T04:06:21.072Z,86.25
2023-04-10T04:07:21.012Z,86.15
2023-04-10T04:08:21.003Z,86.04
2023-04-10T04:09:20.986Z,85.94
2023-04-10T04:10:20.974Z,86.04
2023-04-10T04:11:20.984Z,85.94
2023-04-10T04:12:20.978Z,86.15
2023-04-10T04:13:20.930Z,86.46
2023-04-10T04:14:20.931Z,86.77
2023-04-10T04:15:20.919Z,86.77
2023-04-10T04:16:21.010Z,86.77
2023-04-10T04:17:20.900Z,86.88
2023-04-10T04:18:20.885Z,86.88
2023-04-10T04:19:20.861Z,86.88
2023-04-10T04:20:20.849Z,87.19
2023-04-10T04:21:20.856Z,87.19
2023-04-10T04:22:20.820Z,87.08
2023-04-10T04:23:20.800Z,87.08
2023-04-10T04:24:20.797Z,87.08
2023-04-10T04:25:20.791Z,87.08
2023-04-10T04:26:20.802Z,86.98
2023-04-10T04:27:20.760Z,86.77
2023-04-10T04:28:20.731Z,86.67
2023-04-10T04:29:20.741Z,86.67
2023-04-10T04:30:20.709Z,86.77
2023-04-10T04:31:20.764Z,86.67
2023-04-10T04:32:20.768Z,86.71
2023-04-10T04:33:20.681Z,86.71
2023-04-10T04:34:20.663Z,86.60
2023-04-10T04:35:20.648Z,86.50
2023-04-10T04:36:20.652Z,86.50
2023-04-10T04:37:20.616Z,86.81
2023-04-10T04:38:20.610Z,86.91
2023-04-10T04:39:20.598Z,86.91
2023-04-10T04:40:20.573Z,86.71
2023-04-10T04:41:20.761Z,86.91
2023-04-10T04:42:20.561Z,87.02
2023-04-10T04:43:20.553Z,87.33
2023-04-10T04:44:20.523Z,87.43
2023-04-10T04:45:20.521Z,87.50
2023-04-10T04:46:20.547Z,87.43
2023-04-10T04:47:20.553Z,87.40
2023-04-10T04:48:20.486Z,87.33
2023-04-10T04:49:20.456Z,87.12
2023-04-10T04:50:20.451Z,86.91
2023-04-10T04:51:20.462Z,86.91
2023-04-10T04:52:20.416Z,86.91
2023-04-10T04:53:20.404Z,87.12
2023-04-10T04:54:20.411Z,87.33
2023-04-10T04:55:20.407Z,87.43
2023-04-10T04:56:20.409Z,87.33
2023-04-10T04:57:20.358Z,87.23
2023-04-10T04:58:20.337Z,87.33
2023-04-10T04:59:20.332Z,87.40
2023-04-10T05:00:20.320Z,87.43
2023-04-10T05:01:20.367Z,87.29
2023-04-10T05:02:20.381Z,87.29
2023-04-10T05:03:20.449Z,87.19
2023-04-10T05:04:20.308Z,86.98
2023-04-10T05:05:20.243Z,87.08
2023-04-10T05:06:20.265Z,87.19
2023-04-10T05:07:20.220Z,87.19
2023-04-10T05:08:20.204Z,87.29
2023-04-10T05:09:20.199Z,87.29
2023-04-10T05:10:20.180Z,87.43
2023-04-10T05:11:20.188Z,87.43
2023-04-10T05:12:20.155Z,87.43
2023-04-10T05:13:20.148Z,87.33
2023-04-10T05:14:20.118Z,87.33
2023-04-10T05:15:20.131Z,87.43
2023-04-10T05:16:20.190Z,87.33
2023-04-10T05:17:20.129Z,87.33
2023-04-10T05:18:20.244Z,87.23
2023-04-10T05:19:20.061Z,87.02
2023-04-10T05:20:20.048Z,87.02
2023-04-10T05:21:20.056Z,87.08
2023-04-10T05:22:20.015Z,86.91
2023-04-10T05:23:20.016Z,86.81
2023-04-10T05:24:20.033Z,86.81
2023-04-10T05:25:20.033Z,86.77
2023-04-10T05:26:19.986Z,86.67
2023-04-10T05:27:19.965Z,86.77
2023-04-10T05:28:20.351Z,86.88
2023-04-10T05:29:19.965Z,87.08
2023-04-10T05:30:19.910Z,87.19
2023-04-10T05:31:20.001Z,87.29
2023-04-10T05:32:19.914Z,87.29
2023-04-10T05:33:19.874Z,87.29
2023-04-10T05:34:19.856Z,87.29
2023-04-10T05:35:19.844Z,87.19
2023-04-10T05:36:19.873Z,87.29
2023-04-10T05:37:19.831Z,87.25
2023-04-10T05:38:19.816Z,87.25
2023-04-10T05:39:19.806Z,87.15
2023-04-10T05:40:19.793Z,86.94
2023-04-10T05:41:19.784Z,87.04
2023-04-10T05:42:21.131Z,87.25
2023-04-10T05:43:19.748Z,87.35
2023-04-10T05:44:19.741Z,87.35
2023-04-10T05:45:26.856Z,87.25
2023-04-10T05:46:20.055Z,87.15
2023-04-10T05:47:19.731Z,87.25
2023-04-10T05:48:19.682Z,87.35
2023-04-10T05:49:19.677Z,87.35
2023-04-10T05:50:20.036Z,87.15
2023-04-10T05:51:19.664Z,87.04
2023-04-10T05:52:19.630Z,87.25
2023-04-10T05:53:19.599Z,87.46
2023-04-10T05:54:19.599Z,87.46
2023-04-10T05:55:19.584Z,87.32
2023-04-10T05:56:19.635Z,87.32
2023-04-10T05:57:19.554Z,87.21
2023-04-10T05:58:19.550Z,87.11
2023-04-10T05:59:19.549Z,86.90
2023-04-10T06:00:19.525Z,86.69
2023-04-10T06:01:19.523Z,86.65
2023-04-10T06:02:19.684Z,86.65
2023-04-10T06:03:19.527Z,86.55
2023-04-10T06:04:19.521Z,86.34
2023-04-10T06:05:19.503Z,86.34
2023-04-10T06:06:19.452Z,86.34
2023-04-10T06:07:19.427Z,86.34
2023-04-10T06:08:19.411Z,86.24
2023-04-10T06:09:19.401Z,86.34
2023-04-10T06:10:19.379Z,86.34
2023-04-10T06:11:19.395Z,86.24
2023-04-10T06:12:19.356Z,86.24
2023-04-10T06:13:19.346Z,86.24
2023-04-10T06:14:19.329Z,86.24
2023-04-10T06:15:19.312Z,86.19
2023-04-10T06:16:19.372Z,86.09
2023-04-10T06:17:19.288Z,86.09
2023-04-10T06:18:19.313Z,86.30
2023-04-10T06:19:19.259Z,86.30
2023-04-10T06:20:19.249Z,86.30
2023-04-10T06:21:19.252Z,86.41
2023-04-10T06:22:19.218Z,86.61
2023-04-10T06:23:19.214Z,86.68
2023-04-10T06:24:19.201Z,86.68
2023-04-10T06:25:19.183Z,86.57
2023-04-10T06:26:19.180Z,86.57
2023-04-10T06:27:19.166Z,86.47
2023-04-10T06:28:19.448Z,86.57
2023-04-10T06:29:19.141Z,86.57
2023-04-10T06:30:19.121Z,86.68
2023-04-10T06:31:19.162Z,86.68
2023-04-10T06:32:19.117Z,86.68
2023-04-10T06:33:19.075Z,86.68
2023-04-10T06:34:19.076Z,86.64
2023-04-10T06:35:19.056Z,86.64
2023-04-10T06:36:19.052Z,86.74
2023-04-10T06:37:19.023Z,86.74
2023-04-10T06:38:19.011Z,86.64
2023-04-10T06:39:18.995Z,86.64
2023-04-10T06:40:18.981Z,86.64
2023-04-10T06:41:19.110Z,86.60
2023-04-10T06:42:18.964Z,86.60
2023-04-10T06:43:18.951Z,86.39
2023-04-10T06:44:18.937Z,86.29
2023-04-10T06:45:18.915Z,86.18
2023-04-10T06:46:18.965Z,86.39
2023-04-10T06:47:18.929Z,86.45
2023-04-10T06:48:18.879Z,86.45
2023-04-10T06:49:18.872Z,86.25
2023-04-10T06:50:18.860Z,86.15
2023-04-10T06:51:18.855Z,86.04
2023-04-10T06:52:18.822Z,85.83
2023-04-10T06:53:18.816Z,85.52
2023-04-10T06:54:19.136Z,85.42
2023-04-10T06:55:18.789Z,85.31
2023-04-10T06:56:18.786Z,85.27
2023-04-10T06:57:18.780Z,85.27
2023-04-10T06:58:18.753Z,85.17
2023-04-10T06:59:18.741Z,85.27
2023-04-10T07:00:18.713Z,85.48
2023-04-10T07:01:18.777Z,85.58
2023-04-10T07:02:18.758Z,85.34
2023-04-10T07:03:18.860Z,85.24
2023-04-10T07:04:18.664Z,85.24
2023-04-10T07:05:18.671Z,85.24
2023-04-10T07:06:18.632Z,85.24
2023-04-10T07:07:18.647Z,85.24
2023-04-10T07:08:18.653Z,85.09
2023-04-10T07:09:18.612Z,85.19
2023-04-10T07:10:18.598Z,85.30
2023-04-10T07:11:18.583Z,85.61
2023-04-10T07:12:18.570Z,85.71
2023-04-10T07:13:18.550Z,85.71
2023-04-10T07:14:18.531Z,85.57
2023-04-10T07:15:18.524Z,85.26
2023-04-10T07:16:18.541Z,85.05
2023-04-10T07:17:18.521Z,85.05
2023-04-10T07:18:18.481Z,84.91
2023-04-10T07:19:18.466Z,84.91
2023-04-10T07:20:18.482Z,84.70
2023-04-10T07:21:18.443Z,84.56
2023-04-10T07:22:18.442Z,84.45
2023-04-10T07:23:18.443Z,84.36
2023-04-10T07:24:18.413Z,84.25
2023-04-10T07:25:18.438Z,84.05
2023-04-10T07:26:18.373Z,83.80
2023-04-10T07:27:18.414Z,83.70
2023-04-10T07:28:18.341Z,83.49
2023-04-10T07:29:18.334Z,83.28
2023-04-10T07:30:18.321Z,83.04
2023-04-10T07:31:18.339Z,82.93
2023-04-10T07:32:18.428Z,82.73
2023-04-10T07:33:18.398Z,82.52
2023-04-10T07:34:18.262Z,82.62
2023-04-10T07:35:18.250Z,82.69
2023-04-10T07:36:18.273Z,82.69
2023-04-10T07:37:18.253Z,82.38
2023-04-10T07:38:18.205Z,82.17
2023-04-10T07:39:18.222Z,82.07
2023-04-10T07:40:18.209Z,82.14
2023-04-10T07:41:18.177Z,82.14
2023-04-10T07:42:18.246Z,82.03
2023-04-10T07:43:18.169Z,81.58
2023-04-10T07:44:18.131Z,81.17
2023-04-10T07:45:18.125Z,80.96
2023-04-10T07:46:18.202Z,80.86
2023-04-10T07:47:18.136Z,80.72
2023-04-10T07:48:18.083Z,80.51
2023-04-10T07:49:18.080Z,80.30
2023-04-10T07:50:18.048Z,80.20
2023-04-10T07:51:18.048Z,79.75
2023-04-10T07:52:18.039Z,79.34
2023-04-10T07:53:18.016Z,79.44
2023-04-10T07:54:18.005Z,79.55
2023-04-10T07:55:18.000Z,80.02
2023-04-10T07:56:17.974Z,80.13
2023-04-10T07:57:17.993Z,80.13
2023-04-10T07:58:17.972Z,79.88
2023-04-10T07:59:17.952Z,79.68
2023-04-10T08:00:17.928Z,79.58
2023-04-10T08:01:17.946Z,79.58
2023-04-10T08:02:18.000Z,79.44
2023-04-10T08:03:18.064Z,79.23
2023-04-10T08:04:18.273Z,79.23
2023-04-10T08:05:17.917Z,79.33
2023-04-10T08:06:17.846Z,78.72
2023-04-10T08:07:17.922Z,78.37
2023-04-10T08:08:17.823Z,78.37
2023-04-10T08:09:17.884Z,78.47
2023-04-10T08:10:17.827Z,79.09
2023-04-10T08:11:17.798Z,78.03
2023-04-10T08:12:17.907Z,77.51
2023-04-10T08:13:17.754Z,77.41
2023-04-10T08:14:18.221Z,78.13
2023-04-10T08:15:17.730Z,78.61
2023-04-10T08:16:17.741Z,78.71
2023-04-10T08:17:17.732Z,78.30
2023-04-10T08:18:17.697Z,78.67
2023-04-10T08:19:17.677Z,77.95
2023-04-10T08:20:17.688Z,78.06
2023-04-10T08:21:17.658Z,85.38
2023-04-10T08:22:17.639Z,84.00
2023-04-10T08:23:20.806Z,80.78
2023-04-10T08:24:17.620Z,78.39
2023-04-10T08:25:17.611Z,76.44
2023-04-10T08:26:17.568Z,76.44
2023-04-10T08:27:17.620Z,75.82
2023-04-10T08:28:17.550Z,75.82
2023-04-10T08:29:17.593Z,75.21
2023-04-10T08:30:17.566Z,74.90
2023-04-10T08:31:17.547Z,74.60
2023-04-10T08:32:17.518Z,74.39
2023-04-10T08:33:17.505Z,74.15
2023-04-10T08:34:17.469Z,74.56
2023-04-10T08:35:17.453Z,73.13
2023-04-10T08:36:19.808Z,72.41
2023-04-10T08:37:17.445Z,72.41
2023-04-10T08:38:17.407Z,73.13
2023-04-10T08:39:17.385Z,73.03
2023-04-10T08:40:17.386Z,73.44
2023-04-10T08:41:17.369Z,72.69
2023-04-10T08:42:17.376Z,70.74
2023-04-10T08:43:17.336Z,70.43
2023-04-10T08:44:17.330Z,71.56
2023-04-10T08:45:17.464Z,72.38
2023-04-10T08:46:17.446Z,71.66
2023-04-10T08:47:17.317Z,72.04
2023-04-10T08:48:17.282Z,72.34
2023-04-10T08:49:17.268Z,72.24
2023-04-10T08:50:17.260Z,70.50
2023-04-10T08:51:20.149Z,70.09
2023-04-10T08:52:17.269Z,69.17
2023-04-10T08:53:17.217Z,67.19
2023-04-10T08:54:17.205Z,66.69
2023-04-10T08:55:17.211Z,66.99
2023-04-10T08:56:17.186Z,67.10
2023-04-10T08:57:17.174Z,69.04
2023-04-10T08:58:17.166Z,69.24
2023-04-10T08:59:17.140Z,67.30
2023-04-10T09:00:23.344Z,68.32
2023-04-10T09:01:18.113Z,66.55
2023-04-10T09:02:17.235Z,66.96
2023-04-10T09:03:17.196Z,66.86
2023-04-10T09:04:17.241Z,66.45
2023-04-10T09:05:17.124Z,66.04
2023-04-10T09:06:17.194Z,65.43
2023-04-10T09:07:17.038Z,64.30
2023-04-10T09:08:17.033Z,63.79
2023-04-10T09:09:16.987Z,64.10
2023-04-10T09:10:16.995Z,64.99
2023-04-10T09:11:16.972Z,66.11
2023-04-10T09:12:17.023Z,65.30
2023-04-10T09:13:16.929Z,65.91
2023-04-10T09:14:16.921Z,64.27
2023-04-10T09:15:16.911Z,64.07
2023-04-10T09:16:16.949Z,64.68
2023-04-10T09:17:16.888Z,64.34
2023-04-10T09:18:16.866Z,63.43
2023-04-10T09:19:16.852Z,62.81
2023-04-10T09:20:16.851Z,62.30
2023-04-10T09:21:16.818Z,62.10
2023-04-10T09:22:16.817Z,63.22
2023-04-10T09:23:16.776Z,63.32
2023-04-10T09:24:16.795Z,63.83
2023-04-10T09:25:16.790Z,65.06
2023-04-10T09:26:16.791Z,64.65
2023-04-10T09:27:16.767Z,63.83
2023-04-10T09:28:16.730Z,64.14
2023-04-10T09:29:16.731Z,64.11
2023-04-10T09:30:16.717Z,62.78
2023-04-10T09:31:16.714Z,62.88
2023-04-10T09:32:16.661Z,60.94
2023-04-10T09:33:16.680Z,60.44
2023-04-10T09:34:16.670Z,62.85
2023-04-10T09:35:16.656Z,64.79
2023-04-10T09:36:16.643Z,65.10
2023-04-10T09:37:16.609Z,63.34
2023-04-10T09:38:16.612Z,63.75
2023-04-10T09:39:16.603Z,63.34
2023-04-10T09:40:16.576Z,61.50
2023-04-10T09:41:16.554Z,60.55
2023-04-10T09:42:16.552Z,59.84
2023-04-10T09:43:16.539Z,61.78
2023-04-10T09:44:16.524Z,61.88
2023-04-10T09:45:16.497Z,61.98
2023-04-10T09:46:16.523Z,63.10
2023-04-10T09:47:16.488Z,61.57
2023-04-10T09:48:16.464Z,61.47
2023-04-10T09:49:16.573Z,62.16
2023-04-10T09:50:16.473Z,61.04
2023-04-10T09:51:16.429Z,61.14
2023-04-10T09:52:16.414Z,60.73
2023-04-10T09:53:16.431Z,59.91
2023-04-10T09:54:16.403Z,60.50
2023-04-10T09:55:16.406Z,60.39
2023-04-10T09:56:16.356Z,59.78
2023-04-10T09:57:16.344Z,60.30
2023-04-10T09:58:16.355Z,61.11
2023-04-10T09:59:16.315Z,60.09
2023-04-10T10:00:16.297Z,59.25
2023-04-10T10:01:16.296Z,59.66
2023-04-10T10:02:16.419Z,60.98
2023-04-10T10:03:16.346Z,60.68
2023-04-10T10:04:16.322Z,58.74
2023-04-10T10:05:16.295Z,58.13
2023-04-10T10:06:16.219Z,59.12
2023-04-10T10:07:16.200Z,59.53
2023-04-10T10:08:16.218Z,62.48
2023-04-10T10:09:16.198Z,59.42
2023-04-10T10:10:16.150Z,57.69
2023-04-10T10:11:16.147Z,59.53
2023-04-10T10:12:16.147Z,60.61
2023-04-10T10:13:16.208Z,59.39
2023-04-10T10:14:16.135Z,59.60
2023-04-10T10:15:16.109Z,59.39
2023-04-10T10:16:16.114Z,58.17
2023-04-10T10:17:16.070Z,57.74
2023-04-10T10:18:16.074Z,57.54
2023-04-10T10:19:16.036Z,58.76
2023-04-10T10:20:16.047Z,59.27
2023-04-10T10:21:16.062Z,56.93
2023-04-10T10:22:16.007Z,55.71
2023-04-10T10:23:15.993Z,53.67
2023-04-10T10:24:15.991Z,51.75
2023-04-10T10:25:15.973Z,49.91
2023-04-10T10:26:15.958Z,53.67
2023-04-10T10:27:15.928Z,52.05
2023-04-10T10:28:15.949Z,52.45
2023-04-10T10:29:15.978Z,51.95
2023-04-10T10:30:28.034Z,52.66
2023-04-10T10:31:16.910Z,52.15
2023-04-10T10:32:15.854Z,52.25
2023-04-10T10:33:15.878Z,53.06
2023-04-10T10:34:15.902Z,54.59
2023-04-10T10:35:15.827Z,50.93
2023-04-10T10:36:15.839Z,50.32
2023-04-10T10:37:15.805Z,50.12
2023-04-10T10:38:15.809Z,49.91
2023-04-10T10:39:15.877Z,50.83
2023-04-10T10:40:15.759Z,51.14
2023-04-10T10:41:15.746Z,51.03
2023-04-10T10:42:15.743Z,49.30
2023-04-10T10:43:15.715Z,49.20
2023-04-10T10:44:15.714Z,49.30
2023-04-10T10:45:15.698Z,50.73
2023-04-10T10:46:15.774Z,49.61
2023-04-10T10:47:15.708Z,49.91
2023-04-10T10:48:15.687Z,50.62
2023-04-10T10:49:15.714Z,50.62
2023-04-10T10:50:15.675Z,51.34
2023-04-10T10:51:15.619Z,50.93
2023-04-10T10:52:15.611Z,49.91
2023-04-10T10:53:15.600Z,51.03
2023-04-10T10:54:15.582Z,51.23
2023-04-10T10:55:15.620Z,49.51
2023-04-10T10:56:15.587Z,51.14
2023-04-10T10:57:15.538Z,51.34
2023-04-10T10:58:15.521Z,51.34
2023-04-10T10:59:15.680Z,52.66
2023-04-10T11:00:15.597Z,52.96
2023-04-10T11:01:15.537Z,49.51
2023-04-10T11:02:15.692Z,50.22
2023-04-10T11:03:15.649Z,49.99
2023-04-10T11:04:15.532Z,50.20
2023-04-10T11:05:15.438Z,52.03
2023-04-10T11:06:15.414Z,51.72
2023-04-10T11:07:15.409Z,52.12
2023-04-10T11:08:15.413Z,52.63
2023-04-10T11:09:15.488Z,51.82
2023-04-10T11:10:15.398Z,49.69
2023-04-10T11:11:15.360Z,49.18
2023-04-10T11:12:15.333Z,51.01
2023-04-10T11:13:15.312Z,49.46
2023-04-10T11:14:15.316Z,50.58
2023-04-10T11:15:15.276Z,48.95
2023-04-10T11:16:15.312Z,48.44
2023-04-10T11:17:15.263Z,49.26
2023-04-10T11:18:15.256Z,51.49
2023-04-10T11:19:16.385Z,49.46
2023-04-10T11:20:15.241Z,50.58
2023-04-10T11:21:15.201Z,49.56
2023-04-10T11:22:15.203Z,47.83
2023-04-10T11:23:15.174Z,48.55
2023-04-10T11:24:15.179Z,47.43
2023-04-10T11:25:15.168Z,48.44
2023-04-10T11:26:15.151Z,48.14
2023-04-10T11:27:15.120Z,50.48
2023-04-10T11:28:15.118Z,50.98
2023-04-10T11:29:15.111Z,50.37
2023-04-10T11:30:15.101Z,50.78
2023-04-10T11:31:15.070Z,55.35
2023-04-10T11:32:15.203Z,58.58
2023-04-10T11:33:15.042Z,53.09
2023-04-10T11:34:15.040Z,51.37
2023-04-10T11:35:15.018Z,52.79
2023-04-10T11:36:14.992Z,54.39
2023-04-10T11:37:14.992Z,55.50
2023-04-10T11:38:14.992Z,56.09
2023-04-10T11:39:14.982Z,50.84
2023-04-10T11:40:14.998Z,55.17
2023-04-10T11:41:14.931Z,53.55
2023-04-10T11:42:14.925Z,53.75
2023-04-10T11:43:15.025Z,56.05
2023-04-10T11:44:14.914Z,54.64
2023-04-10T11:45:14.870Z,53.72
2023-04-10T11:46:14.925Z,53.02
2023-04-10T11:47:14.836Z,51.47
2023-04-10T11:48:14.831Z,53.30
2023-04-10T11:49:14.838Z,50.56
2023-04-10T11:50:14.812Z,49.14
2023-04-10T11:51:14.808Z,52.99
2023-04-10T11:52:14.779Z,49.65
2023-04-10T11:53:14.766Z,50.13
2023-04-10T11:54:14.778Z,49.55
2023-04-10T11:55:14.730Z,52.36
2023-04-10T11:56:14.729Z,49.75
2023-04-10T11:57:14.724Z,50.54
2023-04-10T11:58:14.699Z,51.65
2023-04-10T11:59:14.713Z,51.45
2023-04-10T12:00:14.682Z,49.52
2023-04-10T12:01:14.729Z,51.12
2023-04-10T12:02:14.902Z,49.19
2023-04-10T12:03:14.766Z,47.78
2023-04-10T12:04:14.817Z,47.47
2023-04-10T12:05:14.622Z,46.46
2023-04-10T12:06:14.583Z,46.95
2023-04-10T12:07:14.574Z,47.25
2023-04-10T12:08:14.547Z,47.66
2023-04-10T12:09:14.562Z,47.25
2023-04-10T12:10:14.569Z,47.96
2023-04-10T12:11:14.514Z,48.26
2023-04-10T12:12:14.504Z,46.75
2023-04-10T12:13:14.515Z,47.75
2023-04-10T12:14:14.477Z,47.35
2023-04-10T12:15:14.468Z,47.15
2023-04-10T12:16:14.506Z,46.84
2023-04-10T12:17:14.439Z,48.06
2023-04-10T12:18:14.486Z,48.16
2023-04-10T12:19:14.428Z,48.06
2023-04-10T12:20:14.400Z,47.55
2023-04-10T12:21:14.389Z,46.97
2023-04-10T12:22:14.379Z,48.39
2023-04-10T12:23:14.356Z,48.99
2023-04-10T12:24:14.367Z,48.49
2023-04-10T12:25:21.511Z,48.28
2023-04-10T12:26:14.356Z,47.38
2023-04-10T12:27:14.314Z,47.78
2023-04-10T12:28:14.322Z,47.38
2023-04-10T12:29:14.311Z,47.38
2023-04-10T12:30:14.278Z,48.28
2023-04-10T12:31:14.316Z,48.59
2023-04-10T12:32:14.281Z,48.59
2023-04-10T12:33:14.230Z,47.17
2023-04-10T12:34:14.234Z,47.07
2023-04-10T12:35:14.212Z,47.25
2023-04-10T12:36:14.215Z,46.24
2023-04-10T12:37:14.175Z,45.53
2023-04-10T12:38:14.204Z,45.83
2023-04-10T12:39:14.175Z,45.12
2023-04-10T12:40:14.161Z,44.82
2023-04-10T12:41:14.160Z,45.23
2023-04-10T12:42:14.119Z,45.73
2023-04-10T12:43:14.099Z,46.75
2023-04-10T12:44:14.123Z,45.23
2023-04-10T12:45:14.274Z,45.94
2023-04-10T12:46:14.073Z,46.75
2023-04-10T12:47:14.070Z,47.86
2023-04-10T12:48:14.055Z,45.23
2023-04-10T12:49:14.078Z,44.52
2023-04-10T12:50:14.007Z,45.96
2023-04-10T12:51:13.998Z,44.64
2023-04-10T12:52:13.989Z,44.44